createdAt,value
2019-02-14T00:01:05.234Z,78.80
2019-02-14T00:03:33.985Z,78.90
2019-02-14T00:06:02.697Z,79.10
2019-02-14T00:08:31.409Z,79.10
2019-02-14T00:11:00.172Z,79.30
2019-02-14T00:13:28.949Z,79.00
2019-02-14T00:15:57.657Z,79.50
2019-02-14T00:18:26.384Z,79.60
2019-02-14T00:20:55.110Z,79.50
2019-02-14T00:23:23.866Z,79.70
2019-02-14T00:25:52.604Z,80.00
2019-02-14T00:28:21.309Z,79.80
2019-02-14T00:30:50.055Z,79.70
2019-02-14T00:33:18.811Z,79.70
2019-02-14T00:35:47.538Z,79.70
2019-02-14T00:38:16.413Z,79.80
2019-02-14T00:40:45.232Z,79.70
2019-02-14T00:43:15.519Z,79.70
2019-02-14T00:45:44.234Z,79.70
2019-02-14T00:48:13.013Z,79.80
2019-02-14T00:50:41.745Z,80.00
2019-02-14T00:53:10.505Z,79.80
2019-02-14T00:55:39.311Z,80.00
2019-02-14T00:58:08.017Z,80.10
2019-02-14T01:00:36.735Z,80.10
2019-02-14T01:03:05.541Z,80.20
2019-02-14T01:05:34.245Z,80.20
2019-02-14T01:08:03.020Z,80.30
2019-02-14T01:10:31.757Z,80.40
2019-02-14T01:13:00.498Z,80.30
2019-02-14T01:15:29.497Z,80.30
2019-02-14T01:17:58.225Z,80.30
2019-02-14T01:20:26.971Z,80.40
2019-02-14T01:22:55.705Z,80.40
2019-02-14T01:25:24.437Z,80.40
2019-02-14T01:27:53.258Z,80.40
2019-02-14T01:30:21.981Z,80.30
2019-02-14T01:32:50.737Z,80.30
2019-02-14T01:35:19.465Z,80.30
2019-02-14T01:37:48.340Z,80.40
2019-02-14T01:40:17.248Z,80.60
2019-02-14T01:42:45.979Z,80.50
2019-02-14T01:45:14.761Z,80.60
2019-02-14T01:47:43.486Z,80.60
2019-02-14T01:50:12.381Z,80.50
2019-02-14T01:52:41.085Z,80.50
2019-02-14T01:55:09.967Z,80.50
2019-02-14T01:57:38.683Z,80.60
2019-02-14T02:00:11.380Z,80.30
2019-02-14T02:02:40.099Z,80.60
2019-02-14T02:05:08.947Z,80.60
2019-02-14T02:07:37.685Z,80.60
2019-02-14T02:10:07.741Z,80.50
2019-02-14T02:12:36.493Z,80.70
2019-02-14T02:15:05.941Z,80.50
2019-02-14T02:17:34.670Z,80.70
2019-02-14T02:20:03.518Z,80.60
2019-02-14T02:22:32.340Z,80.60
2019-02-14T02:25:01.133Z,80.60
2019-02-14T02:27:30.323Z,80.60
2019-02-14T02:29:59.119Z,80.70
2019-02-14T02:32:27.832Z,80.60
2019-02-14T02:34:56.552Z,80.50
2019-02-14T02:37:25.277Z,80.60
2019-02-14T02:39:54.039Z,80.60
2019-02-14T02:42:23.378Z,80.60
2019-02-14T02:44:52.157Z,80.60
2019-02-14T02:47:20.865Z,80.60
2019-02-14T02:49:49.592Z,80.50
2019-02-14T02:52:18.373Z,80.50
2019-02-14T02:54:47.115Z,80.50
2019-02-14T02:57:15.883Z,80.40
2019-02-14T02:59:44.593Z,80.40
2019-02-14T03:02:15.703Z,80.40
2019-02-14T03:04:44.425Z,80.40
2019-02-14T03:07:13.254Z,80.40
2019-02-14T03:09:42.037Z,80.20
2019-02-14T03:12:10.777Z,80.70
2019-02-14T03:14:39.569Z,80.50
2019-02-14T03:17:08.399Z,80.50
2019-02-14T03:19:37.167Z,80.40
2019-02-14T03:22:05.954Z,80.20
2019-02-14T03:24:34.715Z,80.30
2019-02-14T03:27:03.442Z,80.20
2019-02-14T03:29:32.259Z,80.20
2019-02-14T03:32:01.003Z,80.30
2019-02-14T03:34:29.705Z,80.20
2019-02-14T03:36:58.440Z,80.00
2019-02-14T03:39:27.203Z,80.10
2019-02-14T03:41:56.013Z,80.20
2019-02-14T03:44:24.730Z,80.20
2019-02-14T03:46:53.474Z,80.20
2019-02-14T03:49:22.190Z,80.30
2019-02-14T03:51:50.919Z,79.90
2019-02-14T03:54:19.889Z,80.10
2019-02-14T03:56:48.590Z,80.20
2019-02-14T03:59:17.322Z,80.10
2019-02-14T04:01:46.051Z,80.00
2019-02-14T04:04:14.762Z,80.20
2019-02-14T04:06:43.489Z,80.20
2019-02-14T04:09:12.278Z,80.20
2019-02-14T04:11:41.001Z,80.40
2019-02-14T04:14:09.717Z,80.30
2019-02-14T04:16:38.447Z,80.30
2019-02-14T04:19:07.153Z,80.30
2019-02-14T04:21:35.910Z,80.30
2019-02-14T04:24:04.759Z,80.30
2019-02-14T04:26:33.489Z,80.20
2019-02-14T04:29:02.245Z,80.20
2019-02-14T04:31:30.981Z,80.30
2019-02-14T04:33:59.695Z,80.20
2019-02-14T04:36:35.804Z,80.20
2019-02-14T04:38:59.545Z,80.30
2019-02-14T04:41:28.272Z,80.20
2019-02-14T04:43:57.010Z,80.10
2019-02-14T04:46:25.749Z,80.20
2019-02-14T04:48:54.569Z,80.20
2019-02-14T04:51:23.309Z,80.00
2019-02-14T04:53:52.072Z,80.00
2019-02-14T04:56:20.781Z,80.00
2019-02-14T04:58:49.464Z,79.90
2019-02-14T05:01:18.245Z,80.00
2019-02-14T05:03:47.029Z,80.10
2019-02-14T05:06:15.818Z,80.20
2019-02-14T05:08:44.761Z,80.40
2019-02-14T05:11:15.669Z,80.30
2019-02-14T05:13:44.385Z,80.30
2019-02-14T05:16:13.128Z,80.30
2019-02-14T05:18:41.882Z,80.40
2019-02-14T05:21:10.603Z,80.10
2019-02-14T05:23:39.481Z,80.40
2019-02-14T05:26:11.405Z,79.90
2019-02-14T05:28:40.276Z,80.40
2019-02-14T05:31:09.035Z,80.40
2019-02-14T05:33:37.792Z,80.30
2019-02-14T05:36:06.602Z,80.30
2019-02-14T05:38:35.351Z,80.40
2019-02-14T05:41:05.332Z,80.50
2019-02-14T05:43:34.113Z,80.80
2019-02-14T05:46:02.925Z,80.80
2019-02-14T05:48:31.661Z,80.80
2019-02-14T05:51:00.401Z,80.90
2019-02-14T05:53:29.137Z,80.80
2019-02-14T05:55:57.925Z,80.90
2019-02-14T05:58:26.653Z,80.90
2019-02-14T06:00:55.474Z,81.00
2019-02-14T06:03:24.189Z,81.00
2019-02-14T06:05:52.913Z,81.20
2019-02-14T06:08:21.669Z,81.20
2019-02-14T06:10:50.475Z,81.40
2019-02-14T06:13:19.290Z,81.40
2019-02-14T06:15:48.018Z,81.50
2019-02-14T06:18:16.738Z,81.80
2019-02-14T06:20:45.470Z,81.70
2019-02-14T06:23:14.229Z,81.80
2019-02-14T06:25:42.995Z,81.40
2019-02-14T06:28:11.858Z,81.70
2019-02-14T06:30:40.638Z,81.70
2019-02-14T06:33:09.355Z,81.50
2019-02-14T06:35:38.194Z,81.50
2019-02-14T06:38:07.014Z,81.50
2019-02-14T06:40:35.735Z,81.40
2019-02-14T06:43:04.561Z,81.60
2019-02-14T06:45:33.381Z,81.60
2019-02-14T06:48:02.109Z,81.60
2019-02-14T06:50:34.859Z,81.60
2019-02-14T06:53:01.457Z,81.50
2019-02-14T06:55:30.157Z,81.60
2019-02-14T06:57:58.960Z,81.50
2019-02-14T07:00:28.370Z,81.50
2019-02-14T07:02:57.184Z,80.90
2019-02-14T07:05:25.956Z,81.10
2019-02-14T07:07:54.693Z,81.50
2019-02-14T07:10:23.486Z,81.50
2019-02-14T07:12:52.282Z,81.60
2019-02-14T07:15:21.004Z,81.70
2019-02-14T07:17:49.713Z,81.70
2019-02-14T07:20:18.537Z,81.70
2019-02-14T07:22:47.325Z,81.80
2019-02-14T07:25:16.063Z,82.00
2019-02-14T07:27:44.787Z,82.10
2019-02-14T07:30:15.913Z,82.10
2019-02-14T07:32:44.801Z,82.30
2019-02-14T07:35:15.982Z,82.30
2019-02-14T07:37:44.709Z,82.20
2019-02-14T07:40:13.911Z,82.30
2019-02-14T07:42:43.053Z,82.70
2019-02-14T07:45:13.187Z,82.60
2019-02-14T07:47:41.973Z,82.80
2019-02-14T07:50:11.084Z,82.70
2019-02-14T07:52:39.930Z,82.80
2019-02-14T07:55:09.264Z,82.90
2019-02-14T07:57:38.246Z,83.20
2019-02-14T08:00:09.722Z,83.10
2019-02-14T08:02:38.455Z,83.30
2019-02-14T08:05:07.269Z,83.00
2019-02-14T08:07:36.346Z,83.00
2019-02-14T08:10:06.085Z,83.10
2019-02-14T08:12:34.886Z,83.20
2019-02-14T08:15:04.003Z,82.90
2019-02-14T08:17:32.689Z,82.80
2019-02-14T08:20:01.524Z,82.80
2019-02-14T08:22:30.242Z,82.70
2019-02-14T08:24:58.978Z,82.50
2019-02-14T08:27:27.733Z,82.30
2019-02-14T08:29:56.522Z,82.20
2019-02-14T08:32:25.229Z,82.00
2019-02-14T08:34:53.941Z,82.00
2019-02-14T08:37:22.767Z,81.60
2019-02-14T08:39:51.481Z,81.70
2019-02-14T08:42:20.206Z,81.50
2019-02-14T08:44:48.937Z,81.40
2019-02-14T08:47:17.637Z,81.10
2019-02-14T08:49:46.369Z,81.10
2019-02-14T08:52:17.177Z,80.80
2019-02-14T08:54:45.890Z,80.00
2019-02-14T08:57:14.668Z,80.10
2019-02-14T08:59:43.395Z,79.80
2019-02-14T09:02:12.241Z,79.60
2019-02-14T09:04:40.937Z,79.30
2019-02-14T09:07:11.293Z,79.20
2019-02-14T09:09:41.349Z,79.10
2019-02-14T09:12:10.081Z,74.90
2019-02-14T09:14:38.810Z,78.10
2019-02-14T09:17:07.598Z,77.80
2019-02-14T09:19:36.311Z,77.70
2019-02-14T09:22:05.045Z,77.80
2019-02-14T09:24:33.777Z,77.00
2019-02-14T09:27:02.525Z,77.00
2019-02-14T09:29:31.461Z,76.90
2019-02-14T09:32:00.194Z,77.10
2019-02-14T09:34:28.888Z,76.40
2019-02-14T09:36:57.613Z,76.30
2019-02-14T09:39:26.659Z,76.30
2019-02-14T09:41:55.382Z,76.50
2019-02-14T09:44:24.154Z,75.70
2019-02-14T09:46:52.894Z,75.20
2019-02-14T09:49:21.617Z,75.10
2019-02-14T09:51:50.345Z,74.70
2019-02-14T09:54:19.053Z,74.60
2019-02-14T09:56:47.797Z,74.10
2019-02-14T09:59:16.525Z,74.30
2019-02-14T10:01:45.267Z,74.00
2019-02-14T10:04:14.038Z,74.40
2019-02-14T10:06:42.818Z,73.90
2019-02-14T10:09:11.718Z,73.90
2019-02-14T10:11:40.555Z,73.90
2019-02-14T10:14:09.298Z,73.50
2019-02-14T10:16:38.031Z,73.80
2019-02-14T10:19:06.809Z,73.30
2019-02-14T10:21:35.685Z,73.40
2019-02-14T10:24:04.593Z,72.30
2019-02-14T10:26:33.484Z,72.30
2019-02-14T10:29:02.209Z,71.40
2019-02-14T10:31:31.005Z,71.70
2019-02-14T10:33:59.774Z,71.00
2019-02-14T10:36:28.493Z,71.10
2019-02-14T10:38:57.245Z,71.20
2019-02-14T10:41:25.969Z,70.70
2019-02-14T10:43:54.758Z,71.10
2019-02-14T10:46:23.503Z,70.70
2019-02-14T10:48:52.233Z,70.90
2019-02-14T10:51:21.058Z,70.90
2019-02-14T10:53:49.778Z,70.40
2019-02-14T10:56:18.499Z,70.90
2019-02-14T10:58:47.443Z,70.50
2019-02-14T11:01:16.229Z,70.30
2019-02-14T11:03:45.203Z,70.60
2019-02-14T11:06:14.071Z,70.40
2019-02-14T11:08:42.766Z,70.30
2019-02-14T11:11:11.777Z,69.50
2019-02-14T11:13:40.500Z,69.20
2019-02-14T11:16:09.863Z,69.60
2019-02-14T11:18:44.258Z,69.30
2019-02-14T11:21:09.192Z,69.10
2019-02-14T11:23:37.927Z,68.40
2019-02-14T11:26:12.526Z,68.30
2019-02-14T11:28:41.326Z,68.60
2019-02-14T11:31:10.085Z,69.30
2019-02-14T11:33:38.821Z,68.60
2019-02-14T11:36:07.616Z,68.10
2019-02-14T11:38:40.644Z,68.10
2019-02-14T11:41:06.884Z,68.30
2019-02-14T11:43:35.671Z,68.20
2019-02-14T11:46:04.509Z,68.10
2019-02-14T11:48:33.250Z,68.20
2019-02-14T11:51:03.069Z,67.70
2019-02-14T11:53:32.978Z,68.30
2019-02-14T11:56:04.170Z,68.00
2019-02-14T11:58:32.974Z,68.00
2019-02-14T12:01:01.733Z,67.80
2019-02-14T12:03:30.489Z,68.10
2019-02-14T12:05:59.229Z,67.90
2019-02-14T12:08:27.961Z,67.90
2019-02-14T12:10:56.685Z,67.10
2019-02-14T12:13:25.455Z,67.10
2019-02-14T12:15:54.176Z,67.40
2019-02-14T12:18:24.084Z,67.50
2019-02-14T12:20:53.120Z,67.30
2019-02-14T12:23:21.884Z,67.40
2019-02-14T12:25:50.609Z,67.20
2019-02-14T12:28:19.358Z,66.20
2019-02-14T12:30:48.138Z,66.20
2019-02-14T12:33:16.846Z,65.70
2019-02-14T12:35:45.613Z,65.20
2019-02-14T12:38:14.338Z,64.00
2019-02-14T12:40:43.082Z,63.70
2019-02-14T12:43:14.835Z,63.50
2019-02-14T12:45:43.549Z,63.80
2019-02-14T12:48:12.294Z,64.00
2019-02-14T12:50:41.018Z,63.50
2019-02-14T12:53:09.761Z,62.50
2019-02-14T12:55:38.512Z,62.40
2019-02-14T12:58:07.224Z,62.50
2019-02-14T13:00:36.057Z,62.70
2019-02-14T13:03:04.862Z,62.90
2019-02-14T13:05:33.671Z,61.90
2019-02-14T13:08:02.374Z,61.50
2019-02-14T13:10:31.109Z,61.90
2019-02-14T13:12:59.830Z,62.20
2019-02-14T13:15:28.678Z,61.10
2019-02-14T13:17:57.371Z,61.00
2019-02-14T13:20:26.094Z,60.10
2019-02-14T13:22:54.927Z,60.30
2019-02-14T13:25:23.689Z,60.10
2019-02-14T13:27:52.431Z,60.10
2019-02-14T13:30:22.543Z,59.80
2019-02-14T13:32:51.281Z,59.80
2019-02-14T13:35:20.167Z,59.80
2019-02-14T13:37:48.851Z,60.00
2019-02-14T13:40:17.650Z,60.30
2019-02-14T13:42:46.401Z,60.80
2019-02-14T13:45:16.393Z,61.00
2019-02-14T13:47:45.192Z,59.80
2019-02-14T13:50:15.966Z,59.60
2019-02-14T13:52:44.565Z,59.30
2019-02-14T13:55:13.512Z,59.00
2019-02-14T13:57:42.406Z,58.70
2019-02-14T14:00:15.198Z,58.30
2019-02-14T14:02:43.933Z,57.90
2019-02-14T14:05:12.881Z,57.50
2019-02-14T14:07:41.634Z,56.90
2019-02-14T14:10:10.549Z,57.30
2019-02-14T14:12:39.357Z,57.60
2019-02-14T14:15:08.498Z,58.60
2019-02-14T14:17:37.209Z,58.40
2019-02-14T14:20:06.154Z,57.50
2019-02-14T14:22:34.890Z,57.50
2019-02-14T14:25:03.869Z,58.30
2019-02-14T14:27:32.705Z,57.80
2019-02-14T14:30:01.494Z,57.50
2019-02-14T14:32:30.273Z,57.10
2019-02-14T14:34:59.005Z,56.80
2019-02-14T14:37:27.757Z,56.50
2019-02-14T14:39:56.520Z,56.70
2019-02-14T14:42:53.786Z,56.50
2019-02-14T14:45:32.766Z,56.40
2019-02-14T14:48:01.503Z,56.30
2019-02-14T14:50:30.229Z,56.70
2019-02-14T14:52:59.038Z,56.00
2019-02-14T14:55:27.814Z,55.90
2019-02-14T14:57:56.532Z,55.60
2019-02-14T15:00:25.241Z,55.30
2019-02-14T15:02:54.077Z,55.00
2019-02-14T15:05:22.894Z,55.20
2019-02-14T15:07:51.726Z,54.70
2019-02-14T15:10:20.533Z,54.00
2019-02-14T15:12:49.289Z,53.30
2019-02-14T15:15:18.957Z,52.80
2019-02-14T15:17:47.770Z,52.60
2019-02-14T15:20:16.482Z,52.60
2019-02-14T15:22:45.209Z,53.40
2019-02-14T15:25:13.962Z,53.60
2019-02-14T15:27:42.700Z,54.10
2019-02-14T15:30:11.526Z,54.20
2019-02-14T15:32:40.290Z,54.80
2019-02-14T15:35:09.006Z,54.30
2019-02-14T15:37:37.779Z,54.40
2019-02-14T15:40:10.434Z,53.90
2019-02-14T15:42:39.210Z,53.90
2019-02-14T15:45:08.067Z,53.50
2019-02-14T15:47:36.785Z,53.70
2019-02-14T15:50:06.817Z,53.50
2019-02-14T15:52:36.028Z,52.90
2019-02-14T15:55:04.930Z,53.30
2019-02-14T15:57:33.771Z,51.70
2019-02-14T16:00:04.636Z,51.90
2019-02-14T16:02:33.222Z,51.40
2019-02-14T16:05:04.090Z,50.60
2019-02-14T16:07:32.797Z,50.30
2019-02-14T16:10:03.714Z,50.40
2019-02-14T16:12:32.290Z,50.10
2019-02-14T16:15:01.147Z,50.20
2019-02-14T16:17:29.902Z,49.80
2019-02-14T16:19:59.745Z,50.20
2019-02-14T16:22:30.242Z,49.80
2019-02-14T16:24:59.189Z,49.50
2019-02-14T16:27:27.890Z,49.80
2019-02-14T16:29:56.787Z,50.20
2019-02-14T16:32:25.557Z,50.20
2019-02-14T16:34:54.314Z,50.20
2019-02-14T16:37:23.078Z,50.60
2019-02-14T16:39:54.207Z,50.90
2019-02-14T16:42:22.679Z,50.70
2019-02-14T16:44:51.506Z,51.20
2019-02-14T16:47:20.281Z,52.20
2019-02-14T16:49:48.978Z,52.00
2019-02-14T16:52:17.709Z,52.40
2019-02-14T16:54:46.549Z,52.30
2019-02-14T16:57:15.265Z,52.40
2019-02-14T16:59:44.832Z,52.60
2019-02-14T17:02:16.731Z,52.50
2019-02-14T17:04:46.218Z,52.10
2019-02-14T17:07:15.002Z,51.90
2019-02-14T17:09:43.829Z,52.90
2019-02-14T17:12:12.597Z,54.00
2019-02-14T17:14:41.350Z,54.00
2019-02-14T17:17:10.203Z,54.90
2019-02-14T17:19:38.921Z,54.70
2019-02-14T17:22:07.639Z,54.90
2019-02-14T17:24:36.409Z,55.00
2019-02-14T17:27:05.117Z,55.10
2019-02-14T17:29:33.870Z,55.10
2019-02-14T17:32:02.638Z,55.30
2019-02-14T17:34:31.378Z,55.80
2019-02-14T17:37:00.087Z,55.80
2019-02-14T17:39:28.847Z,55.80
2019-02-14T17:41:57.674Z,56.40
2019-02-14T17:44:26.413Z,56.20
2019-02-14T17:46:55.189Z,56.70
2019-02-14T17:49:24.033Z,56.80
2019-02-14T17:51:52.769Z,57.20
2019-02-14T17:54:21.679Z,57.30
2019-02-14T17:56:50.457Z,57.30
2019-02-14T17:59:22.750Z,57.30
2019-02-14T18:01:51.482Z,57.50
2019-02-14T18:04:24.442Z,58.60
2019-02-14T18:06:54.557Z,57.90
2019-02-14T18:09:23.410Z,58.10
2019-02-14T18:11:52.159Z,57.20
2019-02-14T18:14:20.915Z,58.10
2019-02-14T18:16:49.622Z,58.20
2019-02-14T18:19:18.361Z,58.70
2019-02-14T18:21:47.129Z,58.70
2019-02-14T18:24:15.850Z,58.90
2019-02-14T18:26:44.599Z,58.70
2019-02-14T18:29:13.390Z,58.90
2019-02-14T18:31:42.400Z,59.10
2019-02-14T18:34:11.137Z,58.80
2019-02-14T18:36:39.940Z,59.30
2019-02-14T18:39:08.845Z,59.20
2019-02-14T18:41:37.631Z,59.40
2019-02-14T18:44:06.389Z,59.50
2019-02-14T18:46:35.164Z,59.60
2019-02-14T18:49:03.957Z,59.90
2019-02-14T18:51:33.081Z,60.10
2019-02-14T18:54:02.008Z,60.00
2019-02-14T18:56:30.722Z,59.80
2019-02-14T18:58:59.429Z,60.40
2019-02-14T19:01:28.241Z,60.20
2019-02-14T19:03:56.991Z,60.20
2019-02-14T19:06:25.731Z,60.20
2019-02-14T19:08:56.144Z,60.40
2019-02-14T19:11:24.855Z,60.20
2019-02-14T19:13:53.629Z,60.60
2019-02-14T19:16:22.441Z,60.50
2019-02-14T19:18:51.159Z,60.60
2019-02-14T19:21:19.899Z,60.60
2019-02-14T19:23:48.747Z,60.70
2019-02-14T19:26:17.482Z,60.70
2019-02-14T19:28:46.451Z,60.50
2019-02-14T19:31:16.650Z,60.20
2019-02-14T19:33:45.666Z,61.80
2019-02-14T19:36:17.314Z,62.00
2019-02-14T19:38:47.609Z,62.30
2019-02-14T19:41:25.086Z,62.30
2019-02-14T19:43:46.895Z,62.80
2019-02-14T19:46:15.893Z,62.90
2019-02-14T19:48:44.805Z,62.90
2019-02-14T19:51:13.683Z,62.90
2019-02-14T19:53:42.508Z,63.10
2019-02-14T19:56:11.279Z,62.80
2019-02-14T19:58:40.258Z,63.20
2019-02-14T20:01:09.097Z,62.90
2019-02-14T20:03:38.100Z,63.20
2019-02-14T20:06:06.893Z,63.60
2019-02-14T20:08:35.784Z,63.60
2019-02-14T20:11:04.777Z,63.50
2019-02-14T20:13:36.006Z,63.40
2019-02-14T20:16:05.030Z,63.20
2019-02-14T20:18:34.061Z,63.80
2019-02-14T20:21:04.105Z,64.00
2019-02-14T20:23:32.985Z,63.90
2019-02-14T20:26:01.718Z,63.90
2019-02-14T20:28:30.476Z,63.70
2019-02-14T20:30:59.292Z,63.90
2019-02-14T20:33:28.145Z,63.90
2019-02-14T20:35:56.850Z,64.00
2019-02-14T20:38:25.635Z,64.00
2019-02-14T20:40:54.342Z,64.20
2019-02-14T20:43:23.196Z,64.30
2019-02-14T20:45:54.042Z,63.60
2019-02-14T20:48:23.129Z,64.10
2019-02-14T20:50:51.962Z,64.30
2019-02-14T20:53:20.696Z,64.40
2019-02-14T20:55:49.489Z,64.50
2019-02-14T20:58:20.190Z,64.60
2019-02-14T21:00:50.337Z,64.60
2019-02-14T21:03:19.178Z,64.10
2019-02-14T21:05:48.071Z,64.60
2019-02-14T21:08:16.969Z,64.70
2019-02-14T21:10:45.798Z,64.60
2019-02-14T21:13:14.586Z,64.70
2019-02-14T21:15:43.471Z,64.90
2019-02-14T21:18:16.073Z,65.00
2019-02-14T21:20:44.910Z,64.90
2019-02-14T21:23:13.874Z,65.00
2019-02-14T21:25:42.748Z,64.90
2019-02-14T21:28:11.568Z,65.00
2019-02-14T21:30:42.809Z,65.00
2019-02-14T21:33:15.767Z,65.10
2019-02-14T21:35:44.560Z,65.30
2019-02-14T21:38:13.438Z,65.30
2019-02-14T21:40:42.200Z,65.30
2019-02-14T21:43:11.015Z,65.30
2019-02-14T21:45:40.031Z,65.50
2019-02-14T21:48:08.767Z,65.40
2019-02-14T21:50:37.621Z,65.50
2019-02-14T21:53:06.356Z,65.70
2019-02-14T21:55:35.074Z,65.90
2019-02-14T21:58:05.098Z,66.00
2019-02-14T22:00:34.253Z,65.90
2019-02-14T22:03:03.098Z,65.90
2019-02-14T22:05:31.850Z,65.90
2019-02-14T22:08:00.766Z,66.00
2019-02-14T22:10:29.489Z,66.00
2019-02-14T22:12:58.209Z,65.80
2019-02-14T22:15:28.198Z,66.10
2019-02-14T22:17:56.981Z,66.10
2019-02-14T22:20:25.789Z,66.10
2019-02-14T22:22:54.525Z,66.30
2019-02-14T22:25:23.304Z,66.50
2019-02-14T22:27:54.809Z,66.10
2019-02-14T22:30:24.051Z,66.10
2019-02-14T22:32:59.331Z,66.00
2019-02-14T22:35:36.475Z,66.30
2019-02-14T22:38:15.077Z,65.60
2019-02-14T22:40:47.298Z,65.30
2019-02-14T22:43:16.653Z,64.80
2019-02-14T22:45:45.345Z,65.60
2019-02-14T22:48:14.248Z,66.20
2019-02-14T22:50:43.157Z,66.30
2019-02-14T22:53:11.989Z,66.40
2019-02-14T22:55:45.585Z,66.60
2019-02-14T22:58:14.389Z,66.20
2019-02-14T23:00:51.005Z,66.60
2019-02-14T23:03:19.822Z,66.90
2019-02-14T23:05:50.937Z,66.80
2019-02-14T23:08:19.829Z,65.90
2019-02-14T23:10:48.550Z,66.00
2019-02-14T23:13:17.334Z,66.60
2019-02-14T23:15:46.252Z,67.00
2019-02-14T23:18:15.058Z,67.10
2019-02-14T23:20:43.781Z,67.20
2019-02-14T23:23:12.798Z,67.20
2019-02-14T23:25:41.513Z,67.10
2019-02-14T23:28:10.249Z,67.90
2019-02-14T23:30:39.097Z,67.30
2019-02-14T23:33:07.854Z,67.50
2019-02-14T23:35:36.591Z,67.40
2019-02-14T23:38:05.370Z,67.50
2019-02-14T23:40:34.079Z,67.50
2019-02-14T23:43:04.946Z,67.50
2019-02-14T23:45:33.322Z,67.30
2019-02-14T23:48:02.039Z,67.50
2019-02-14T23:50:30.741Z,67.50
2019-02-14T23:52:59.474Z,67.60
2019-02-14T23:55:28.357Z,67.80
2019-02-14T23:57:57.094Z,67.70
